Time;durP1;ratioP1;P1;durP2;ratioP2;P2;SDS_P1;SDS_P2;PMS_P1;PMS_P2;Temp;Humidity;BMP_temperature;BMP_pressure;BME280_temperature;BME280_humidity;BME280_pressure;Samples;Min_cycle;Max_cycle;Signal;HPM_P1;HPM_P2
2022/07/23 00:00:33;;;;;;;9.68;8.80;;;23.20;99.90;;;;;;4953657;29;20233;-46
2022/07/23 00:02:59;;;;;;;10.68;9.63;;;23.20;99.90;;;;;;4953358;29;20188;-46
2022/07/23 00:05:25;;;;;;;9.45;8.65;;;23.10;99.90;;;;;;4953491;29;20181;-46
2022/07/23 00:07:51;;;;;;;10.25;9.27;;;23.00;99.90;;;;;;4953720;28;20190;-46
2022/07/23 00:10:17;;;;;;;11.13;8.82;;;22.90;99.90;;;;;;4953440;28;20231;-46
2022/07/23 00:12:43;;;;;;;9.60;8.68;;;22.90;99.90;;;;;;4953488;29;20178;-46
2022/07/23 00:15:09;;;;;;;8.90;8.10;;;22.90;99.90;;;;;;4953127;29;20212;-45
2022/07/23 00:17:35;;;;;;;8.68;7.97;;;22.80;99.90;;;;;;4953307;29;20200;-46
2022/07/23 00:20:01;;;;;;;9.50;8.60;;;22.60;99.90;;;;;;4953236;29;20237;-46
2022/07/23 00:22:28;;;;;;;8.73;7.82;;;22.60;99.90;;;;;;4953377;29;20193;-46
2022/07/23 00:24:55;;;;;;;7.93;7.30;;;22.50;99.90;;;;;;4953183;29;20273;-46
2022/07/23 00:27:22;;;;;;;7.38;6.68;;;22.60;99.90;;;;;;4953334;29;20189;-46
2022/07/23 00:29:48;;;;;;;7.03;6.43;;;22.70;99.90;;;;;;4952856;28;20220;-46
2022/07/23 00:32:13;;;;;;;6.78;6.15;;;22.70;99.90;;;;;;4952965;29;20179;-46
2022/07/23 00:34:39;;;;;;;6.22;5.70;;;22.70;99.90;;;;;;4952829;29;20185;-46
2022/07/23 00:37:05;;;;;;;6.47;5.38;;;22.70;99.90;;;;;;4953043;29;20190;-46
2022/07/23 00:39:31;;;;;;;5.68;4.95;;;22.70;99.90;;;;;;4952948;28;20208;-46
2022/07/23 00:41:57;;;;;;;5.60;5.07;;;22.80;99.90;;;;;;4952817;29;20185;-45
2022/07/23 00:44:28;;;;;;;5.45;4.70;;;22.80;99.90;;;;;;4952694;28;20228;-46
2022/07/23 00:46:56;;;;;;;5.28;4.78;;;22.80;99.90;;;;;;4952082;29;20181;-45
2022/07/23 00:49:23;;;;;;;5.43;4.72;;;22.80;99.90;;;;;;4952738;28;20231;-45
2022/07/23 00:51:50;;;;;;;5.68;5.18;;;22.90;99.90;;;;;;4952668;29;20181;-45
2022/07/23 00:54:19;;;;;;;5.13;4.68;;;22.80;99.90;;;;;;4952615;29;20192;-46
2022/07/23 00:56:46;;;;;;;5.35;4.75;;;22.70;99.90;;;;;;4952658;29;20186;-44
2022/07/23 00:59:13;;;;;;;5.53;5.03;;;22.60;99.90;;;;;;4952279;28;20205;-44
2022/07/23 01:01:39;;;;;;;5.57;5.18;;;22.50;99.90;;;;;;4952482;29;20291;-44
2022/07/23 01:04:05;;;;;;;6.47;5.47;;;22.50;99.90;;;;;;4952400;29;20189;-44
2022/07/23 01:06:37;;;;;;;6.50;5.72;;;22.50;99.90;;;;;;4952761;29;20177;-44
2022/07/23 01:09:05;;;;;;;6.32;5.72;;;22.50;99.90;;;;;;4952302;28;20213;-44
2022/07/23 01:11:35;;;;;;;8.85;5.97;;;22.40;99.90;;;;;;4952263;29;20578;-44
2022/07/23 01:14:16;;;;;;;6.55;5.85;;;22.40;99.90;;;;;;4952217;29;20182;-44
2022/07/23 01:16:44;;;;;;;6.85;5.88;;;22.30;99.90;;;;;;4952297;29;20189;-44
2022/07/23 01:19:11;;;;;;;6.68;6.00;;;22.40;99.90;;;;;;4952219;28;20256;-44
2022/07/23 01:21:40;;;;;;;7.75;6.57;;;22.30;99.90;;;;;;4952429;29;20185;-44
2022/07/23 01:24:06;;;;;;;7.10;6.32;;;22.40;99.90;;;;;;4951869;29;20275;-44
2022/07/23 01:26:36;;;;;;;6.72;6.13;;;22.50;99.90;;;;;;4952091;29;20181;-44
2022/07/23 01:29:03;;;;;;;7.13;6.43;;;22.40;99.90;;;;;;4951856;28;20244;-44
2022/07/23 01:31:29;;;;;;;6.80;6.25;;;22.40;99.90;;;;;;4952161;29;20264;-44
2022/07/23 01:33:55;;;;;;;7.43;6.75;;;22.40;99.90;;;;;;4952001;29;20185;-44
2022/07/23 01:36:21;;;;;;;7.22;6.53;;;22.30;99.90;;;;;;4952050;29;20201;-44
2022/07/23 01:38:48;;;;;;;7.82;7.03;;;22.30;99.90;;;;;;4951739;28;20272;-44
2022/07/23 01:41:15;;;;;;;7.60;6.30;;;22.20;99.90;;;;;;4951881;29;20189;-44
2022/07/23 01:43:41;;;;;;;7.55;6.85;;;22.10;99.90;;;;;;4951939;29;20189;-44
2022/07/23 01:46:07;;;;;;;6.97;6.38;;;22.10;99.90;;;;;;4951694;29;20185;-44
2022/07/23 01:48:39;;;;;;;6.95;6.35;;;22.10;99.90;;;;;;4951694;28;20209;-44
2022/07/23 01:51:28;;;;;;;6.90;6.30;;;22.00;99.90;;;;;;4934082;28;20184;-44
2022/07/23 01:54:03;;;;;;;7.03;6.30;;;21.90;99.90;;;;;;4951496;29;20181;-44
2022/07/23 01:56:29;;;;;;;6.38;5.78;;;21.90;99.90;;;;;;4951389;29;20185;-44
2022/07/23 01:58:55;;;;;;;6.07;5.47;;;21.90;99.90;;;;;;4951731;28;20205;-44
2022/07/23 02:01:22;;;;;;;5.75;5.15;;;21.90;99.90;;;;;;4951833;29;20213;-44
2022/07/23 02:03:48;;;;;;;6.43;5.25;;;21.90;99.90;;;;;;4951270;29;20228;-44
2022/07/23 02:06:14;;;;;;;6.00;4.82;;;21.90;99.90;;;;;;4951059;29;20204;-44
2022/07/23 02:08:39;;;;;;;5.60;4.80;;;21.90;99.90;;;;;;4951514;28;20252;-44
2022/07/23 02:11:05;;;;;;;6.53;5.13;;;21.80;99.90;;;;;;4951774;29;20268;-44
2022/07/23 02:13:32;;;;;;;4.85;4.40;;;21.90;99.90;;;;;;4951549;29;20185;-44
2022/07/23 02:15:59;;;;;;;5.32;4.65;;;21.90;99.90;;;;;;4951317;29;20182;-44
2022/07/23 02:18:25;;;;;;;4.90;4.25;;;21.90;99.90;;;;;;4942848;29;20201;-44
2022/07/23 02:20:51;;;;;;;5.22;4.72;;;21.90;99.90;;;;;;4967368;28;20177;-44
2022/07/23 02:23:17;;;;;;;6.13;4.45;;;21.80;99.90;;;;;;4966981;28;20181;-44
2022/07/23 02:25:43;;;;;;;4.93;4.53;;;21.70;99.90;;;;;;4964375;28;20201;-44
2022/07/23 02:28:10;;;;;;;5.10;4.63;;;21.70;99.90;;;;;;4966747;28;20320;-44
2022/07/23 02:30:38;;;;;;;5.93;5.00;;;21.80;99.90;;;;;;4967307;28;20276;-44
2022/07/23 02:33:04;;;;;;;5.40;4.50;;;21.70;99.90;;;;;;4967324;28;20189;-44
2022/07/23 02:35:29;;;;;;;5.60;5.05;;;21.60;99.90;;;;;;4951262;28;20181;-44
2022/07/23 02:37:58;;;;;;;7.32;5.10;;;21.60;99.90;;;;;;4967586;28;20187;-44
2022/07/23 02:40:26;;;;;;;7.38;4.65;;;21.60;99.90;;;;;;4967288;28;20205;-44
2022/07/23 02:42:52;;;;;;;5.85;4.60;;;21.60;99.90;;;;;;4967094;28;20271;-44
2022/07/23 02:45:17;;;;;;;5.20;4.70;;;21.70;99.90;;;;;;4951100;29;20398;-44
2022/07/23 02:47:43;;;;;;;5.88;4.43;;;21.80;99.90;;;;;;4951158;29;20188;-44
2022/07/23 02:50:10;;;;;;;5.60;5.10;;;21.70;99.90;;;;;;4951101;28;20213;-44
2022/07/23 02:52:39;;;;;;;5.55;5.05;;;21.80;99.90;;;;;;4951263;29;20185;-44
2022/07/23 02:55:06;;;;;;;5.72;5.05;;;21.80;99.90;;;;;;4951249;29;20174;-44
2022/07/23 02:57:31;;;;;;;4.85;4.45;;;21.80;99.90;;;;;;4952544;28;20289;-44
2022/07/23 02:59:57;;;;;;;5.30;4.90;;;21.70;99.90;;;;;;4950910;28;20283;-44
2022/07/23 03:02:23;;;;;;;6.10;5.30;;;21.70;99.90;;;;;;4951139;29;20205;-44
2022/07/23 03:04:50;;;;;;;5.28;4.88;;;21.80;99.90;;;;;;4950982;29;20181;-44
2022/07/23 03:07:17;;;;;;;5.40;5.00;;;21.80;99.90;;;;;;4951653;28;20189;-44
2022/07/23 03:09:43;;;;;;;5.15;4.70;;;21.80;99.90;;;;;;4954439;28;20228;-44
2022/07/23 03:12:09;;;;;;;6.13;5.10;;;21.80;99.90;;;;;;4954807;29;20220;-44
2022/07/23 03:14:35;;;;;;;5.45;4.90;;;21.80;99.90;;;;;;4954188;29;20241;-44
2022/07/23 03:17:00;;;;;;;5.93;5.30;;;21.80;99.90;;;;;;4938513;29;20192;-44
2022/07/23 03:19:27;;;;;;;5.72;5.13;;;21.80;99.90;;;;;;4954350;28;20208;-43
2022/07/23 03:21:52;;;;;;;5.63;5.13;;;21.70;99.90;;;;;;4954451;29;20193;-44
2022/07/23 03:24:18;;;;;;;5.13;4.63;;;21.70;99.90;;;;;;4954278;29;20276;-44
2022/07/23 03:26:44;;;;;;;6.18;5.43;;;21.70;99.90;;;;;;4954331;29;20204;-44
2022/07/23 03:29:11;;;;;;;6.28;4.80;;;21.60;99.90;;;;;;4953753;28;20209;-44
2022/07/23 03:31:37;;;;;;;6.70;4.65;;;21.50;99.90;;;;;;4954266;29;20181;-44
2022/07/23 03:34:03;;;;;;;6.80;5.32;;;21.50;99.90;;;;;;4954092;29;20244;-44
2022/07/23 03:36:29;;;;;;;7.18;5.13;;;21.40;99.90;;;;;;4954502;29;20260;-44
2022/07/23 03:38:55;;;;;;;6.68;5.20;;;21.30;99.90;;;;;;4954114;28;20344;-44
2022/07/23 03:41:21;;;;;;;6.10;5.50;;;21.40;99.90;;;;;;4954040;29;20279;-44
2022/07/23 03:43:48;;;;;;;5.75;5.18;;;21.30;99.90;;;;;;4953521;29;20197;-44
2022/07/23 03:46:13;;;;;;;6.28;5.50;;;21.20;99.90;;;;;;4953687;29;20189;-44
2022/07/23 03:48:39;;;;;;;6.65;5.30;;;21.20;99.90;;;;;;4953832;28;20201;-44
2022/07/23 03:51:05;;;;;;;5.60;5.10;;;21.20;99.90;;;;;;4954108;29;20184;-44
2022/07/23 03:53:31;;;;;;;5.45;4.95;;;21.20;99.90;;;;;;4954050;29;20201;-44
2022/07/23 03:55:57;;;;;;;5.47;4.97;;;21.20;99.90;;;;;;4953666;29;20182;-44
2022/07/23 03:58:24;;;;;;;6.60;5.15;;;21.20;99.90;;;;;;4953443;28;20288;-44
2022/07/23 04:00:49;;;;;;;5.82;5.30;;;21.30;99.90;;;;;;4952571;28;20288;-44
2022/07/23 04:03:15;;;;;;;6.68;5.22;;;21.30;99.90;;;;;;4953784;29;20189;-44
2022/07/23 04:05:42;;;;;;;6.80;5.45;;;21.30;99.90;;;;;;4953363;29;20306;-44
2022/07/23 04:08:12;;;;;;;5.95;5.45;;;21.30;99.90;;;;;;4938292;28;20209;-44
2022/07/23 04:10:41;;;;;;;5.82;5.32;;;21.20;99.90;;;;;;4953249;29;20200;-44
2022/07/23 04:13:08;;;;;;;6.18;5.57;;;21.20;99.90;;;;;;4952988;29;20189;-44
2022/07/23 04:15:34;;;;;;;7.13;5.85;;;21.20;99.90;;;;;;4954671;28;20173;-44
2022/07/23 04:18:00;;;;;;;8.10;6.40;;;21.10;99.90;;;;;;4953092;28;20630;-44
2022/07/23 04:20:35;;;;;;;6.60;5.32;;;21.10;99.90;;;;;;4938522;29;20208;-44
2022/07/23 04:23:03;;;;;;;7.57;5.57;;;20.90;99.90;;;;;;4953077;29;20209;-44
2022/07/23 04:25:29;;;;;;;6.60;5.63;;;20.70;99.90;;;;;;4952590;29;20220;-44
2022/07/23 04:27:54;;;;;;;6.18;5.57;;;20.60;99.90;;;;;;4952858;28;20181;-44
2022/07/23 04:30:20;;;;;;;6.93;5.47;;;20.50;99.90;;;;;;4937034;29;20209;-44
2022/07/23 04:32:48;;;;;;;5.93;5.43;;;20.60;99.90;;;;;;4953007;29;20177;-44
2022/07/23 04:35:27;;;;;;;6.93;6.20;;;20.70;99.90;;;;;;4952774;29;20177;-44
2022/07/23 04:37:56;;;;;;;6.63;5.70;;;20.80;99.90;;;;;;4950580;28;20185;-44
2022/07/23 04:40:23;;;;;;;6.93;5.47;;;20.80;99.90;;;;;;4968716;28;20181;-44
2022/07/23 04:42:49;;;;;;;6.30;5.70;;;20.90;99.90;;;;;;4967319;28;20185;-44
2022/07/23 04:45:15;;;;;;;6.72;5.72;;;21.00;99.90;;;;;;4951616;29;20181;-44
2022/07/23 04:47:43;;;;;;;5.90;5.00;;;21.10;99.90;;;;;;4952759;29;20207;-44
2022/07/23 04:50:09;;;;;;;7.57;6.28;;;21.20;99.90;;;;;;4952439;28;20221;-44
2022/07/23 04:52:37;;;;;;;6.30;5.70;;;21.20;99.90;;;;;;4952439;29;20185;-44
2022/07/23 04:55:03;;;;;;;6.60;5.90;;;21.20;99.90;;;;;;4952539;29;20192;-44
2022/07/23 04:57:29;;;;;;;6.50;5.90;;;21.20;99.90;;;;;;4952516;29;20201;-44
2022/07/23 04:59:55;;;;;;;6.32;5.72;;;21.30;99.90;;;;;;4952471;28;20205;-44
2022/07/23 05:02:20;;;;;;;7.00;6.25;;;21.30;99.90;;;;;;4952759;29;20181;-44
2022/07/23 05:04:46;;;;;;;7.13;6.43;;;21.30;99.90;;;;;;4952131;29;20185;-44
2022/07/23 05:07:12;;;;;;;11.02;6.45;;;21.30;99.90;;;;;;4952039;29;20189;-44
2022/07/23 05:09:38;;;;;;;8.13;6.88;;;21.40;99.90;;;;;;4952457;28;20248;-44
2022/07/23 05:12:05;;;;;;;8.80;6.65;;;21.40;99.90;;;;;;4952226;29;20181;-44
2022/07/23 05:14:32;;;;;;;6.70;6.10;;;21.40;99.90;;;;;;4932883;29;20192;-44
2022/07/23 05:16:58;;;;;;;6.68;6.07;;;21.40;99.90;;;;;;4948771;29;20216;-44
2022/07/23 05:19:25;;;;;;;10.43;6.85;;;21.40;99.90;;;;;;4948732;28;20214;-44
2022/07/23 05:21:52;;;;;;;9.50;6.57;;;21.40;99.90;;;;;;4949640;29;20190;-44
2022/07/23 05:24:20;;;;;;;7.28;6.57;;;21.40;99.90;;;;;;4951397;29;20196;-44
2022/07/23 05:26:47;;;;;;;7.28;6.57;;;21.50;99.90;;;;;;4967697;28;20278;-44
2022/07/23 05:29:14;;;;;;;7.20;6.53;;;21.50;99.90;;;;;;4999505;23;20243;-36
2022/07/23 05:31:40;;;;;;;8.68;6.85;;;21.50;99.90;;;;;;4992387;28;20179;-36
2022/07/23 05:34:06;;;;;;;8.07;7.28;;;21.50;99.90;;;;;;4975995;28;20179;-37
2022/07/23 05:36:35;;;;;;;8.90;7.65;;;21.50;99.90;;;;;;4975060;28;20271;-36
2022/07/23 05:39:03;;;;;;;7.85;7.03;;;21.60;99.90;;;;;;4970588;28;20231;-35
2022/07/23 05:41:36;;;;;;;8.32;7.53;;;21.60;99.90;;;;;;4956767;28;20180;-37
2022/07/23 05:44:03;;;;;;;7.93;7.18;;;21.60;99.90;;;;;;4957745;28;20188;-36
2022/07/23 05:46:30;;;;;;;8.32;7.50;;;21.70;99.90;;;;;;4973927;28;20211;-38
2022/07/23 05:49:05;;;;;;;8.73;7.78;;;21.80;99.90;;;;;;4956620;28;20243;-37
2022/07/23 05:51:55;;;;;;;8.13;7.32;;;21.80;99.90;;;;;;4950030;28;20211;-35
2022/07/23 05:54:35;;;;;;;7.78;7.07;;;21.90;99.90;;;;;;4959611;28;20184;-38
2022/07/23 05:57:01;;;;;;;8.18;7.47;;;21.90;99.90;;;;;;4958369;28;20187;-36
2022/07/23 05:59:27;;;;;;;8.55;7.65;;;22.10;99.90;;;;;;4957094;28;20200;-37
2022/07/23 06:01:53;;;;;;;8.70;7.90;;;22.20;99.90;;;;;;4973532;28;20184;-36
2022/07/23 06:04:19;;;;;;;9.77;8.77;;;22.30;99.90;;;;;;4974014;28;20194;-36
2022/07/23 06:06:56;;;;;;;8.68;7.85;;;22.50;99.90;;;;;;4974239;28;20652;-38
2022/07/23 06:09:22;;;;;;;9.00;7.93;;;22.60;99.90;;;;;;4957942;28;20223;-36
2022/07/23 06:11:47;;;;;;;8.52;7.78;;;22.80;99.90;;;;;;4958099;28;20182;-35
2022/07/23 06:14:14;;;;;;;9.07;8.27;;;22.90;99.90;;;;;;4957573;28;20188;-36
2022/07/23 06:16:55;;;;;;;8.52;7.68;;;23.10;99.90;;;;;;4960450;28;20251;-36
2022/07/23 06:19:22;;;;;;;8.50;7.32;;;23.40;99.90;;;;;;4981610;28;20199;-35
2022/07/23 06:21:49;;;;;;;7.78;6.97;;;23.50;99.90;;;;;;4963958;28;20176;-36
2022/07/23 06:24:17;;;;;;;8.95;7.65;;;23.60;99.90;;;;;;4985112;28;20183;-37
2022/07/23 06:26:44;;;;;;;8.88;8.05;;;23.60;99.90;;;;;;4983237;28;20179;-37
2022/07/23 06:29:10;;;;;;;8.55;7.53;;;23.70;99.90;;;;;;4989601;28;20258;-36
2022/07/23 06:31:37;;;;;;;9.07;8.00;;;23.80;99.90;;;;;;4965985;28;20275;-35
2022/07/23 06:34:04;;;;;;;8.52;7.53;;;23.90;99.90;;;;;;4989787;28;20180;-36
2022/07/23 06:36:29;;;;;;;9.30;8.40;;;24.10;99.90;;;;;;4978714;28;20187;-40
2022/07/23 06:38:55;;;;;;;10.45;7.60;;;24.20;99.90;;;;;;4957331;28;20196;-39
2022/07/23 06:41:22;;;;;;;9.30;8.15;;;24.20;99.90;;;;;;4973652;28;20180;-36
2022/07/23 06:43:48;;;;;;;8.20;7.50;;;24.40;99.90;;;;;;4977085;28;20238;-39
2022/07/23 06:46:15;;;;;;;8.40;7.55;;;24.50;99.90;;;;;;4961415;28;20209;-38
2022/07/23 06:48:41;;;;;;;10.65;7.80;;;24.60;99.90;;;;;;4961129;28;20239;-36
2022/07/23 06:51:07;;;;;;;9.95;8.05;;;24.70;99.90;;;;;;4961247;28;20183;-37
2022/07/23 06:53:33;;;;;;;8.73;7.93;;;24.80;99.90;;;;;;4960714;28;20242;-37
2022/07/23 06:56:00;;;;;;;9.35;8.45;;;24.90;99.90;;;;;;4961205;28;20180;-36
2022/07/23 06:58:26;;;;;;;9.27;8.35;;;25.10;99.90;;;;;;4967491;28;20235;-36
2022/07/23 07:00:52;;;;;;;8.13;7.32;;;25.20;99.90;;;;;;4972220;28;20180;-36
2022/07/23 07:03:24;;;;;;;8.55;7.75;;;25.40;99.90;;;;;;4976929;28;20172;-37
2022/07/23 07:05:50;;;;;;;10.15;8.05;;;25.40;99.90;;;;;;4960651;28;20711;-37
2022/07/23 07:08:16;;;;;;;8.30;7.53;;;25.50;99.90;;;;;;4957591;28;20185;-37
2022/07/23 07:10:42;;;;;;;7.78;7.18;;;25.40;99.90;;;;;;4957782;28;20227;-36
2022/07/23 07:13:08;;;;;;;8.10;7.45;;;25.40;99.90;;;;;;4974552;28;20176;-35
2022/07/23 07:15:35;;;;;;;7.93;7.10;;;25.30;99.90;;;;;;4960711;28;20182;-36
2022/07/23 07:18:02;;;;;;;9.38;7.97;;;25.10;99.90;;;;;;4958272;28;20172;-39
2022/07/23 07:20:29;;;;;;;10.45;7.50;;;25.10;99.90;;;;;;4957122;28;20227;-37
2022/07/23 07:22:55;;;;;;;7.65;6.85;;;25.10;99.90;;;;;;4954593;28;20187;-37
2022/07/23 07:25:21;;;;;;;8.35;7.60;;;25.20;99.90;;;;;;4957268;28;20267;-40
2022/07/23 07:27:47;;;;;;;8.35;7.38;;;25.30;99.90;;;;;;4972159;28;20183;-43
2022/07/23 07:30:13;;;;;;;8.35;7.65;;;25.30;99.90;;;;;;4960209;28;20211;-41
2022/07/23 07:32:40;;;;;;;7.93;7.18;;;25.40;99.90;;;;;;4960396;28;20176;-38
2022/07/23 07:35:07;;;;;;;8.90;8.02;;;25.40;99.90;;;;;;4962598;28;20180;-40
2022/07/23 07:37:33;;;;;;;8.30;7.60;;;25.50;99.90;;;;;;4960842;28;20176;-44
2022/07/23 07:39:59;;;;;;;8.07;7.32;;;25.50;99.90;;;;;;4971370;28;20200;-40
2022/07/23 07:42:25;;;;;;;8.38;7.57;;;25.50;99.90;;;;;;4976376;28;20184;-40
2022/07/23 07:44:52;;;;;;;8.05;7.25;;;25.50;99.90;;;;;;4960179;28;20176;-38
2022/07/23 07:47:18;;;;;;;7.63;6.95;;;25.60;99.90;;;;;;4977955;28;20183;-39
2022/07/23 07:49:44;;;;;;;7.82;6.88;;;25.60;99.90;;;;;;4963643;28;20222;-38
2022/07/23 07:52:10;;;;;;;7.90;7.20;;;25.50;99.90;;;;;;4975761;28;20172;-39
2022/07/23 07:54:36;;;;;;;7.78;7.15;;;25.50;99.90;;;;;;4958956;28;20200;-39
2022/07/23 07:57:03;;;;;;;7.97;7.28;;;25.70;99.90;;;;;;4973639;28;20205;-39
2022/07/23 07:59:28;;;;;;;8.27;7.43;;;25.90;99.90;;;;;;4975953;28;20298;-40
2022/07/23 08:01:54;;;;;;;7.68;6.97;;;26.10;99.90;;;;;;4975416;28;20279;-38
2022/07/23 08:04:20;;;;;;;8.52;7.82;;;26.20;99.90;;;;;;4959181;28;20327;-39
2022/07/23 08:06:46;;;;;;;8.63;7.55;;;26.30;99.90;;;;;;4959513;28;20271;-40
2022/07/23 08:09:13;;;;;;;8.90;8.00;;;26.20;99.90;;;;;;4993308;28;20211;-39
2022/07/23 08:11:39;;;;;;;7.70;7.00;;;26.10;99.90;;;;;;4956144;28;20188;-38
2022/07/23 08:14:04;;;;;;;8.10;7.40;;;26.20;99.90;;;;;;4971833;28;20215;-38
2022/07/23 08:16:31;;;;;;;8.48;7.65;;;26.10;99.90;;;;;;4956989;28;20251;-43
2022/07/23 08:18:57;;;;;;;7.70;7.00;;;26.20;99.90;;;;;;4956034;28;20311;-39
2022/07/23 08:21:22;;;;;;;8.15;7.45;;;26.40;99.90;;;;;;4959454;28;20266;-39
2022/07/23 08:23:48;;;;;;;8.57;7.78;;;26.70;99.90;;;;;;4959515;28;20194;-37
2022/07/23 08:26:14;;;;;;;7.47;6.78;;;26.70;99.90;;;;;;4975354;28;20195;-35
2022/07/23 08:28:40;;;;;;;8.25;7.55;;;26.90;99.90;;;;;;4992733;28;20207;-37
2022/07/23 08:31:06;;;;;;;7.90;7.20;;;27.10;99.90;;;;;;4974904;28;20657;-38
2022/07/23 08:33:32;;;;;;;8.55;7.63;;;27.30;99.90;;;;;;4959552;28;20187;-39
2022/07/23 08:35:58;;;;;;;8.15;7.38;;;27.20;99.90;;;;;;4957447;28;20180;-37
2022/07/23 08:38:25;;;;;;;10.82;7.50;;;27.00;99.90;;;;;;4969304;28;20176;-36
2022/07/23 08:40:54;;;;;;;9.75;8.77;;;27.00;99.90;;;;;;4968249;28;20188;-37
2022/07/23 08:43:23;;;;;;;10.45;8.30;;;26.80;99.90;;;;;;4967613;28;20180;-38
2022/07/23 08:45:51;;;;;;;8.50;7.68;;;26.90;99.90;;;;;;4966535;28;20172;-41
2022/07/23 08:48:23;;;;;;;8.48;7.68;;;27.10;99.90;;;;;;4988302;28;20191;-37
2022/07/23 08:50:55;;;;;;;7.72;6.97;;;27.10;99.90;;;;;;4965099;28;20261;-37
2022/07/23 08:53:22;;;;;;;7.35;6.65;;;27.20;99.90;;;;;;4965671;28;20242;-37
2022/07/23 08:55:50;;;;;;;7.95;7.35;;;27.30;99.90;;;;;;4987661;28;20179;-36
2022/07/23 08:58:17;;;;;;;7.93;7.13;;;27.50;99.90;;;;;;4985933;28;20171;-38
2022/07/23 09:00:45;;;;;;;7.97;7.30;;;27.60;99.90;;;;;;4989789;28;20187;-40
2022/07/23 09:03:23;;;;;;;7.65;7.05;;;27.70;99.90;;;;;;4992118;28;20172;-37
2022/07/23 09:05:53;;;;;;;8.18;7.20;;;27.70;99.90;;;;;;4964989;28;20263;-37
2022/07/23 09:08:23;;;;;;;7.45;6.75;;;27.70;99.90;;;;;;4974402;28;20231;-37
2022/07/23 09:11:03;;;;;;;8.18;7.43;;;27.80;99.90;;;;;;4958544;28;20231;-36
2022/07/23 09:13:28;;;;;;;7.80;7.15;;;27.90;99.90;;;;;;4959206;28;20187;-38
2022/07/23 09:16:00;;;;;;;7.90;6.88;;;28.00;99.90;;;;;;4974140;28;20180;-37
2022/07/23 09:18:32;;;;;;;9.57;8.77;;;28.00;99.90;;;;;;4972463;28;20172;-37
2022/07/23 09:21:13;;;;;;;11.02;10.05;;;27.90;99.90;;;;;;4966765;28;20185;-38
2022/07/23 09:23:43;;;;;;;11.90;10.90;;;27.90;99.90;;;;;;4972518;28;20192;-36
2022/07/23 09:26:31;;;;;;;12.48;11.27;;;28.00;99.90;;;;;;4951571;28;20173;-37
2022/07/23 09:28:58;;;;;;;7.65;7.05;;;28.30;99.90;;;;;;4974054;28;20283;-36
2022/07/23 09:31:25;;;;;;;8.35;7.20;;;28.30;99.90;;;;;;4959157;28;20399;-36
2022/07/23 09:34:05;;;;;;;8.63;7.82;;;28.40;99.90;;;;;;4974325;28;20698;-38
2022/07/23 09:36:31;;;;;;;7.72;7.03;;;28.20;99.90;;;;;;4958703;28;20222;-37
2022/07/23 09:38:57;;;;;;;8.10;7.32;;;28.20;99.90;;;;;;4973899;28;20208;-39
2022/07/23 09:41:24;;;;;;;8.57;7.50;;;28.30;99.90;;;;;;4958533;28;20216;-37
2022/07/23 09:43:56;;;;;;;7.63;6.90;;;28.30;99.90;;;;;;4958311;28;20191;-35
2022/07/23 09:46:25;;;;;;;7.75;7.13;;;28.10;99.90;;;;;;4958591;28;20234;-36
2022/07/23 09:48:58;;;;;;;7.57;6.88;;;27.90;99.90;;;;;;4957909;28;20216;-36
2022/07/23 09:51:28;;;;;;;8.10;7.35;;;28.00;99.90;;;;;;4958065;28;20254;-36
2022/07/23 09:53:54;;;;;;;10.88;7.30;;;28.00;99.90;;;;;;4956771;28;20180;-42
2022/07/23 09:56:22;;;;;;;7.95;7.25;;;27.90;99.90;;;;;;4971032;28;20184;-37
2022/07/23 09:59:02;;;;;;;8.15;7.45;;;28.20;99.90;;;;;;4973351;28;20200;-38
2022/07/23 10:01:29;;;;;;;9.05;7.50;;;28.40;99.90;;;;;;4957699;28;20234;-37
2022/07/23 10:03:55;;;;;;;8.10;7.30;;;28.30;99.90;;;;;;4957274;28;20176;-37
2022/07/23 10:06:46;;;;;;;8.48;7.40;;;28.60;99.90;;;;;;4988382;28;21063;-36
2022/07/23 10:09:40;;;;;;;7.45;6.75;;;28.90;99.90;;;;;;4988917;28;20227;-42
2022/07/23 10:15:12;;;;;;;8.43;7.63;;;29.20;99.90;;;;;;4971095;28;20179;-37
2022/07/23 10:17:41;;;;;;;8.45;7.68;;;29.30;99.90;;;;;;4958622;28;20179;-37
2022/07/23 10:20:14;;;;;;;8.55;7.72;;;29.40;99.90;;;;;;4964197;28;20195;-39
2022/07/23 10:23:03;;;;;;;8.27;7.57;;;29.50;99.90;;;;;;4951224;28;20195;-39
2022/07/23 10:25:49;;;;;;;7.47;6.82;;;29.60;99.90;;;;;;4960906;28;20266;-38
2022/07/23 10:28:41;;;;;;;7.88;7.18;;;29.80;99.90;;;;;;4958252;28;20176;-40
2022/07/23 10:31:23;;;;;;;8.77;7.65;;;29.90;99.90;;;;;;4960961;28;20176;-38
2022/07/23 10:33:58;;;;;;;8.27;7.47;;;30.10;99.90;;;;;;4962585;28;20207;-37
2022/07/23 10:36:37;;;;;;;7.65;7.05;;;30.00;99.90;;;;;;4994187;28;20673;-39
2022/07/23 10:39:17;;;;;;;8.57;7.78;;;30.20;99.90;;;;;;4959517;28;20308;-36
2022/07/23 10:41:46;;;;;;;7.75;7.05;;;30.10;99.90;;;;;;4971776;28;20191;-39
2022/07/23 10:44:25;;;;;;;7.93;7.18;;;30.10;99.90;;;;;;4962771;28;20188;-41
2022/07/23 10:47:11;;;;;;;7.70;7.05;;;30.20;99.90;;;;;;4958476;28;20187;-36
2022/07/23 10:49:39;;;;;;;8.40;7.70;;;29.90;99.90;;;;;;4958849;28;20216;-41
2022/07/23 10:52:14;;;;;;;8.00;7.30;;;29.70;99.90;;;;;;4954690;28;20235;-41
2022/07/23 10:54:47;;;;;;;8.02;7.32;;;29.20;99.90;;;;;;4962668;28;20175;-38
2022/07/23 10:57:14;;;;;;;7.90;7.10;;;29.40;99.90;;;;;;4958052;28;20172;-35
2022/07/23 11:00:09;;;;;;;7.78;7.07;;;29.50;99.90;;;;;;4974714;28;20208;-40
2022/07/23 11:02:37;;;;;;;29.50;27.00;;;29.60;99.90;;;;;;4994531;28;20192;-36
2022/07/23 11:05:16;;;;;;;9.20;8.50;;;29.60;99.90;;;;;;4976338;28;20182;-37
2022/07/23 11:08:04;;;;;;;7.22;6.53;;;29.70;99.90;;;;;;4958878;28;20323;-37
2022/07/23 11:10:37;;;;;;;7.07;6.57;;;29.70;99.90;;;;;;4973865;28;20215;-38
2022/07/23 11:13:21;;;;;;;8.43;7.82;;;29.60;99.90;;;;;;4975900;28;20184;-38
2022/07/23 11:16:10;;;;;;;7.85;6.72;;;29.50;99.90;;;;;;4959300;28;20184;-36
2022/07/23 11:18:43;;;;;;;7.13;6.53;;;29.70;99.90;;;;;;4957858;28;20207;-37
2022/07/23 11:21:28;;;;;;;8.00;7.25;;;29.80;99.90;;;;;;4945565;28;20191;-38
2022/07/23 11:24:08;;;;;;;7.15;6.55;;;29.70;99.90;;;;;;4973479;28;20216;-37
2022/07/23 11:26:45;;;;;;;7.50;6.90;;;29.70;99.90;;;;;;4976232;28;20191;-37
2022/07/23 11:29:31;;;;;;;7.50;6.90;;;29.70;99.90;;;;;;4965521;23;20228;-87
2022/07/23 11:32:18;;;;;;;7.50;6.85;;;29.70;99.90;;;;;;4961211;28;20197;-86
2022/07/23 11:34:46;;;;;;;7.60;7.00;;;29.70;99.90;;;;;;4939821;29;20461;-85
2022/07/23 11:37:29;;;;;;;7.38;6.60;;;29.50;99.90;;;;;;4956200;28;20178;-85
2022/07/23 11:39:57;;;;;;;7.57;6.90;;;29.50;99.90;;;;;;4953496;28;20181;-86
2022/07/23 11:42:23;;;;;;;6.97;6.38;;;29.40;99.90;;;;;;4972622;28;20235;-86
2022/07/23 11:44:50;;;;;;;7.43;6.65;;;29.40;99.90;;;;;;4955004;29;20185;-86
2022/07/23 11:47:24;;;;;;;7.38;6.70;;;29.50;99.90;;;;;;4957887;29;20236;-94
2022/07/23 11:50:00;;;;;;;7.22;6.63;;;29.70;99.90;;;;;;4975573;28;20277;-92
2022/07/23 11:52:28;;;;;;;7.32;6.72;;;29.80;99.90;;;;;;4939509;29;20229;-93
2022/07/23 11:55:22;;;;;;;7.47;6.80;;;30.10;99.90;;;;;;4955211;28;20189;-93
2022/07/23 11:57:53;;;;;;;7.13;6.63;;;30.60;99.90;;;;;;4934892;29;20194;-93
2022/07/23 12:00:21;;;;;;;7.25;6.60;;;30.90;99.90;;;;;;4952024;28;20217;-93
2022/07/23 12:03:02;;;;;;;7.40;6.80;;;31.30;99.90;;;;;;4952116;29;20258;-93
2022/07/23 12:05:30;;;;;;;6.75;6.20;;;31.60;99.90;;;;;;4948203;29;20181;-93
2022/07/23 12:07:57;;;;;;;7.55;6.40;;;31.40;99.00;;;;;;4938725;29;20186;-93
2022/07/23 12:10:29;;;;;;;7.18;6.65;;;31.20;99.90;;;;;;4954763;28;20173;-93
2022/07/23 12:12:57;;;;;;;7.07;6.57;;;31.00;99.90;;;;;;4956293;28;20453;-92
2022/07/23 12:15:44;;;;;;;7.30;6.60;;;31.20;99.90;;;;;;4940846;28;20193;-93
2022/07/23 12:18:14;;;;;;;7.00;6.40;;;31.10;99.30;;;;;;4938202;29;20213;-94
2022/07/23 12:20:44;;;;;;;7.30;6.60;;;31.10;99.90;;;;;;4949087;28;20233;-92
2022/07/23 12:23:12;;;;;;;8.07;7.10;;;31.10;99.30;;;;;;4939867;29;20181;-92
2022/07/23 12:25:44;;;;;;;7.50;6.80;;;31.20;98.70;;;;;;4945475;28;20184;-94
2022/07/23 12:28:36;;;;;;;6.57;6.00;;;31.60;99.30;;;;;;4958778;28;20164;-93
2022/07/23 12:31:05;;;;;;;6.70;6.10;;;31.80;99.00;;;;;;4951256;28;20220;-93
2022/07/23 12:33:41;;;;;;;7.32;6.72;;;31.80;98.10;;;;;;4959537;28;20193;-93
2022/07/23 12:36:36;;;;;;;6.80;6.25;;;31.80;98.50;;;;;;4961577;28;20274;-93
2022/07/23 12:39:07;;;;;;;6.93;6.32;;;31.60;97.00;;;;;;4964340;28;20200;-93
2022/07/23 12:41:54;;;;;;;7.05;6.55;;;31.60;97.90;;;;;;4951983;28;20209;-94
2022/07/23 12:44:21;;;;;;;6.53;6.00;;;31.40;98.20;;;;;;4979389;28;20189;-94
2022/07/23 12:46:52;;;;;;;7.22;6.63;;;31.20;97.70;;;;;;4958601;28;20247;-93
2022/07/23 12:49:30;;;;;;;7.05;6.40;;;31.10;98.30;;;;;;4959751;28;20212;-93
2022/07/23 12:52:32;;;;;;;6.63;6.13;;;30.70;97.40;;;;;;4955510;28;20209;-94
2022/07/23 12:55:04;;;;;;;7.13;6.55;;;30.40;98.10;;;;;;4937579;29;20193;-94
2022/07/23 12:58:24;;;;;;;6.55;6.05;;;30.40;98.70;;;;;;4957721;28;20189;-93
2022/07/23 13:00:57;;;;;;;7.10;6.60;;;30.40;98.70;;;;;;4952819;28;20213;-93